Saga Sapphire — 9HOF8 — position and weather

sailwx.info

Track history (hours):
 
Tides and Currents Weather Stations Pressure Air Temp Water Temp Dewpoint Dewpoint Depression Visibility Wind Speed Wind Dir Waves Ship Positions

Saga Sapphire

Last reported at 2019-Jan-22 12:38 UTC. Time now 2019-Jan-23 21:48 UTC.
Position N 48°05' W 005°51'.

Length 200 m; draft 8.5 m.

Type: Passenger vessel. MMSI: 256208000.

Date/timePositionNaut miles runAvg speedWind from/ knotsBaromVisibWave heightAir tempDewpointWater temp
2019-Jan-22 12:38N 48°05' W 005°51'1614.6
2019-Jan-22 11:33N 48°18' W 005°37'816.1
2019-Jan-22 11:04N 48°24' W 005°31'116.7
2019-Jan-22 11:00N 48°25' W 005°30'917.1
2019-Jan-22 10:30N 48°32' W 005°22'917.1
2019-Jan-22 10:00N 48°39' W 005°14'816.9
2019-Jan-22 09:30N 48°45' W 005°05'816.3
2019-Jan-22 09:01N 48°51' W 004°57'12514.6
2019-Jan-22 00:26N 50°16' W 002°35'715.3
2019-Jan-22 00:00N 50°19' W 002°26'714.7
2019-Jan-21 23:30N 50°23' W 002°16'813.9
2019-Jan-21 22:58N 50°26' W 002°06'613.4
2019-Jan-21 22:30N 50°29' W 001°57'612.9
2019-Jan-21 22:00N 50°33' W 001°49'612.8
2019-Jan-21 21:30N 50°36' W 001°41'713.5
2019-Jan-21 21:00N 50°42' W 001°34'611.4
2019-Jan-21 20:30N 50°44' W 001°26'5 9.8
2019-Jan-21 20:00N 50°47' W 001°19'4 7.3
2019-Jan-21 19:30N 50°50' W 001°19'4 8.4
2019-Jan-21 19:00N 50°53' W 001°24'1 1.5
2019-Jan-21 18:29N 50°54' W 001°25'0 0.1
2019-Jan-21 17:59N 50°54' W 001°25'0 0.0
2019-Jan-21 17:29N 50°54' W 001°25'0 0.0
2019-Jan-21 16:50N 50°54' W 001°25'0 0.0
2019-Jan-21 16:23N 50°54' W 001°25'0 0.0
2019-Jan-21 15:59N 50°54' W 001°25'0 0.0
2019-Jan-21 15:23N 50°54' W 001°25'0 0.0
2019-Jan-21 14:59N 50°54' W 001°25'0 0.0
2019-Jan-21 14:26N 50°54' W 001°25'0 0.0
2019-Jan-21 13:59N 50°54' W 001°25'0 0.0
2019-Jan-21 13:29N 50°54' W 001°25'0 0.0
2019-Jan-21 12:59N 50°54' W 001°25'0 0.0
2019-Jan-21 12:29N 50°54' W 001°25'0 0.0
2019-Jan-21 11:59N 50°54' W 001°25'0 0.0
2019-Jan-21 11:29N 50°54' W 001°25'0 0.0
2019-Jan-21 10:59N 50°54' W 001°25'0 0.0
2019-Jan-21 10:30N 50°54' W 001°25'2 3.3
2019-Jan-21 10:00N 50°53' W 001°23'5 9.5
2019-Jan-21 09:30N 50°49' W 001°18'510.1
2019-Jan-21 09:00N 50°45' W 001°23'816.1
2019-Jan-21 08:30N 50°41' W 001°34'816.3
2019-Jan-21 08:01N 50°35' W 001°42'918.3
2019-Jan-21 07:31N 50°30' W 001°53'1119.5
2019-Jan-21 06:57N 50°25' W 002°09'1119.0
2019-Jan-21 06:24N 50°21' W 002°24'718.1
2019-Jan-21 06:00N 50°19' W 002°35'917.6
2019-Jan-21 05:30N 50°15' W 002°47'917.4
2019-Jan-21 05:01N 50°12' W 002°60'816.8
2019-Jan-21 04:31N 50°06' W 003°10'816.9
2019-Jan-21 04:01N 50°00' W 003°19'816.6
2019-Jan-21 03:31N 49°54' W 003°27'816.4
2019-Jan-21 03:00N 49°48' W 003°36'816.3
2019-Jan-21 02:31N 49°42' W 003°44'816.2
2019-Jan-21 02:01N 49°36' W 003°52'4915.5
2019-Jan-20 22:51N 49°00' W 004°44'514.5
2019-Jan-20 22:31N 48°56' W 004°49'714.1
2019-Jan-20 22:00N 48°51' W 004°57'713.7
2019-Jan-20 21:31N 48°46' W 005°04'713.6
2019-Jan-20 21:01N 48°41' W 005°10'713.4
2019-Jan-20 20:31N 48°36' W 005°17'713.5
2019-Jan-20 20:01N 48°31' W 005°24'  
2019-Jan-17 22:00N 33°30' W 015°54'   360 / 341025.110.8 15.012.3
2019-Jan-15 13:00N 28°00' W 027°36'   040 / 91021.610.8 21.213.421.0
Track history (hours):
 
Tides and Currents Weather Stations Pressure Air Temp Water Temp Dewpoint Dewpoint Depression Visibility Wind Speed Wind Dir Waves Ship Positions

Saga Sapphire

Last reported at 2019-Jan-22 12:38 UTC. Time now 2019-Jan-23 21:48 UTC.
Position N 48°05' W 005°51'.

Length 200 m; draft 8.5 m.

Type: Passenger vessel. MMSI: 256208000.

Date/timePositionNaut miles runAvg speedWind from/ knotsBaromVisibWave heightAir tempDewpointWater temp
2019-Jan-22 12:38N 48°05' W 005°51'1614.6
2019-Jan-22 11:33N 48°18' W 005°37'816.1
2019-Jan-22 11:04N 48°24' W 005°31'116.7
2019-Jan-22 11:00N 48°25' W 005°30'917.1
2019-Jan-22 10:30N 48°32' W 005°22'917.1
2019-Jan-22 10:00N 48°39' W 005°14'816.9
2019-Jan-22 09:30N 48°45' W 005°05'816.3
2019-Jan-22 09:01N 48°51' W 004°57'12514.6
2019-Jan-22 00:26N 50°16' W 002°35'715.3
2019-Jan-22 00:00N 50°19' W 002°26'714.7
2019-Jan-21 23:30N 50°23' W 002°16'813.9
2019-Jan-21 22:58N 50°26' W 002°06'613.4
2019-Jan-21 22:30N 50°29' W 001°57'612.9
2019-Jan-21 22:00N 50°33' W 001°49'612.8
2019-Jan-21 21:30N 50°36' W 001°41'713.5
2019-Jan-21 21:00N 50°42' W 001°34'611.4
2019-Jan-21 20:30N 50°44' W 001°26'5 9.8
2019-Jan-21 20:00N 50°47' W 001°19'4 7.3
2019-Jan-21 19:30N 50°50' W 001°19'4 8.4
2019-Jan-21 19:00N 50°53' W 001°24'1 1.5
2019-Jan-21 18:29N 50°54' W 001°25'0 0.1
2019-Jan-21 17:59N 50°54' W 001°25'0 0.0
2019-Jan-21 17:29N 50°54' W 001°25'0 0.0
2019-Jan-21 16:50N 50°54' W 001°25'0 0.0
2019-Jan-21 16:23N 50°54' W 001°25'0 0.0
2019-Jan-21 15:59N 50°54' W 001°25'0 0.0
2019-Jan-21 15:23N 50°54' W 001°25'0 0.0
2019-Jan-21 14:59N 50°54' W 001°25'0 0.0
2019-Jan-21 14:26N 50°54' W 001°25'0 0.0
2019-Jan-21 13:59N 50°54' W 001°25'0 0.0
2019-Jan-21 13:29N 50°54' W 001°25'0 0.0
2019-Jan-21 12:59N 50°54' W 001°25'0 0.0
2019-Jan-21 12:29N 50°54' W 001°25'0 0.0
2019-Jan-21 11:59N 50°54' W 001°25'0 0.0
2019-Jan-21 11:29N 50°54' W 001°25'0 0.0
2019-Jan-21 10:59N 50°54' W 001°25'0 0.0
2019-Jan-21 10:30N 50°54' W 001°25'2 3.3
2019-Jan-21 10:00N 50°53' W 001°23'5 9.5
2019-Jan-21 09:30N 50°49' W 001°18'510.1
2019-Jan-21 09:00N 50°45' W 001°23'816.1
2019-Jan-21 08:30N 50°41' W 001°34'816.3
2019-Jan-21 08:01N 50°35' W 001°42'918.3
2019-Jan-21 07:31N 50°30' W 001°53'1119.5
2019-Jan-21 06:57N 50°25' W 002°09'1119.0
2019-Jan-21 06:24N 50°21' W 002°24'718.1
2019-Jan-21 06:00N 50°19' W 002°35'917.6
2019-Jan-21 05:30N 50°15' W 002°47'917.4
2019-Jan-21 05:01N 50°12' W 002°60'816.8
2019-Jan-21 04:31N 50°06' W 003°10'816.9
2019-Jan-21 04:01N 50°00' W 003°19'816.6
2019-Jan-21 03:31N 49°54' W 003°27'816.4
2019-Jan-21 03:00N 49°48' W 003°36'816.3
2019-Jan-21 02:31N 49°42' W 003°44'816.2
2019-Jan-21 02:01N 49°36' W 003°52'4915.5
2019-Jan-20 22:51N 49°00' W 004°44'514.5
2019-Jan-20 22:31N 48°56' W 004°49'714.1
2019-Jan-20 22:00N 48°51' W 004°57'713.7
2019-Jan-20 21:31N 48°46' W 005°04'713.6
2019-Jan-20 21:01N 48°41' W 005°10'713.4
2019-Jan-20 20:31N 48°36' W 005°17'713.5
2019-Jan-20 20:01N 48°31' W 005°24'  
2019-Jan-17 22:00N 33°30' W 015°54'   360 / 341025.110.8 15.012.3
2019-Jan-15 13:00N 28°00' W 027°36'   040 / 91021.610.8 21.213.421.0

Dump ship's entire track history